createdAt,value
2022-10-10T00:00:14.298Z,99980.72
2022-10-10T00:01:48.919Z,99994.75
2022-10-10T00:03:21.615Z,99998.34
2022-10-10T00:04:54.882Z,100001.03
2022-10-10T00:06:32.746Z,99999.28
2022-10-10T00:08:07.206Z,99998.38
2022-10-10T00:09:40.456Z,99992.13
2022-10-10T00:11:15.201Z,99991.28
2022-10-10T00:12:48.844Z,99999.31
2022-10-10T00:14:22.590Z,99997.63
2022-10-10T00:15:54.842Z,99989.72
2022-10-10T00:17:29.559Z,99993.25
2022-10-10T00:19:02.717Z,99996.81
2022-10-10T00:20:35.005Z,100001.28
2022-10-10T00:22:08.391Z,99991.53
2022-10-10T00:23:40.781Z,100005.59
2022-10-10T00:25:15.217Z,100001.09
2022-10-10T00:26:48.911Z,100004.63
2022-10-10T00:28:22.419Z,100003.75
2022-10-10T00:29:55.781Z,100005.66
2022-10-10T00:31:29.029Z,100001.63
2022-10-10T00:33:02.627Z,100003.47
2022-10-10T00:34:35.986Z,100001.72
2022-10-10T00:36:09.243Z,100007.00
2022-10-10T00:37:41.476Z,100006.22
2022-10-10T00:39:14.843Z,100011.47
2022-10-10T00:40:48.715Z,100008.03
2022-10-10T00:42:21.996Z,100012.38
2022-10-10T00:44:06.154Z,100014.13
2022-10-10T00:45:42.133Z,100015.03
2022-10-10T00:47:15.356Z,100014.16
2022-10-10T00:48:49.911Z,100018.53
2022-10-10T00:50:23.901Z,100018.44
2022-10-10T00:52:00.513Z,100016.72
2022-10-10T00:53:37.839Z,100016.78
2022-10-10T00:55:12.432Z,100008.03
2022-10-10T00:56:48.294Z,100018.63
2022-10-10T00:58:22.961Z,100016.09
2022-10-10T00:59:56.593Z,100022.34
2022-10-10T01:01:29.860Z,100020.78
2022-10-10T01:03:02.131Z,100020.94
2022-10-10T01:04:45.040Z,100045.66
2022-10-10T01:06:18.796Z,100039.63
2022-10-10T01:07:52.122Z,100045.78
2022-10-10T01:09:25.428Z,100047.59
2022-10-10T01:11:17.488Z,100047.56
2022-10-10T01:13:00.099Z,100052.78
2022-10-10T01:14:40.557Z,100059.78
2022-10-10T01:16:24.155Z,100058.84
2022-10-10T01:18:06.965Z,100058.78
2022-10-10T01:20:18.708Z,100065.75
2022-10-10T01:22:03.403Z,100071.97
2022-10-10T01:24:05.752Z,100069.31
2022-10-10T01:25:50.784Z,100068.47
2022-10-10T01:27:31.473Z,100064.09
2022-10-10T01:29:13.591Z,100068.50
2022-10-10T01:30:48.181Z,100057.81
2022-10-10T01:32:29.660Z,100061.19
2022-10-10T01:34:08.663Z,100075.16
2022-10-10T01:35:52.332Z,100064.50
2022-10-10T01:37:34.888Z,100062.75
2022-10-10T01:39:14.708Z,100062.00
2022-10-10T01:40:52.870Z,100068.16
2022-10-10T01:42:33.085Z,100059.44
2022-10-10T01:44:07.634Z,100070.06
2022-10-10T01:45:44.411Z,100061.31
2022-10-10T01:47:17.761Z,100049.84
2022-10-10T01:48:54.845Z,100056.03
2022-10-10T01:50:27.968Z,100048.97
2022-10-10T01:52:14.727Z,100056.88
2022-10-10T01:53:56.036Z,100054.19
2022-10-10T01:55:37.226Z,100050.56
2022-10-10T01:57:21.869Z,100053.19
2022-10-10T01:59:17.274Z,100054.13
2022-10-10T02:00:56.229Z,100058.56
2022-10-10T02:02:40.791Z,100070.03
2022-10-10T02:04:23.004Z,100070.06
2022-10-10T02:06:01.273Z,100071.91
2022-10-10T02:07:40.789Z,100066.59
2022-10-10T02:09:18.733Z,100068.41
2022-10-10T02:10:56.928Z,100079.06
2022-10-10T02:12:32.759Z,100076.47
2022-10-10T02:14:10.633Z,100072.91
2022-10-10T02:15:50.935Z,100079.06
2022-10-10T02:17:27.541Z,100086.16
2022-10-10T02:19:01.620Z,100081.00
2022-10-10T02:20:35.259Z,100079.41
2022-10-10T02:22:08.801Z,100083.97
2022-10-10T02:23:43.982Z,100087.72
2022-10-10T02:25:16.977Z,100088.72
2022-10-10T02:26:59.422Z,100093.94
2022-10-10T02:28:39.521Z,100101.09
2022-10-10T02:30:14.623Z,100099.34
2022-10-10T02:31:55.863Z,100105.50
2022-10-10T02:33:32.788Z,100104.56
2022-10-10T02:35:09.785Z,100112.53
2022-10-10T02:36:47.879Z,100110.78
2022-10-10T02:38:21.874Z,100101.91
2022-10-10T02:39:59.378Z,100115.09
2022-10-10T02:41:34.862Z,100113.28
2022-10-10T02:43:09.383Z,100113.19
2022-10-10T02:44:42.573Z,100111.47
2022-10-10T02:46:16.299Z,100116.75
2022-10-10T02:47:52.284Z,100104.56
2022-10-10T02:49:28.063Z,100112.44
2022-10-10T02:51:01.307Z,100119.56
2022-10-10T02:52:34.579Z,100116.06
2022-10-10T02:54:08.129Z,100113.47
2022-10-10T02:55:41.405Z,100099.59
2022-10-10T02:57:13.770Z,100117.09
2022-10-10T02:58:46.930Z,100124.94
2022-10-10T03:00:20.820Z,100123.28
2022-10-10T03:01:55.427Z,100123.22
2022-10-10T03:03:30.008Z,100124.09
2022-10-10T03:05:02.164Z,100114.34
2022-10-10T03:06:36.786Z,100123.97
2022-10-10T03:08:11.816Z,100123.09
2022-10-10T03:09:45.161Z,100118.69
2022-10-10T03:11:18.359Z,100125.78
2022-10-10T03:12:52.092Z,100106.50
2022-10-10T03:14:24.607Z,100118.84
2022-10-10T03:15:57.857Z,100107.63
2022-10-10T03:17:31.051Z,100117.09
2022-10-10T03:19:08.403Z,100119.75
2022-10-10T03:20:41.728Z,100122.38
2022-10-10T03:22:14.894Z,100124.00
2022-10-10T03:23:48.022Z,100130.19
2022-10-10T03:25:21.266Z,100123.97
2022-10-10T03:26:54.111Z,100127.53
2022-10-10T03:28:27.266Z,100120.44
2022-10-10T03:29:59.521Z,100123.94
2022-10-10T03:31:33.653Z,100128.25
2022-10-10T03:33:06.755Z,100130.00
2022-10-10T03:34:41.298Z,100134.44
2022-10-10T03:36:14.511Z,100131.72
2022-10-10T03:37:47.847Z,100140.59
2022-10-10T03:39:20.190Z,100129.16
2022-10-10T03:40:53.341Z,100134.47
2022-10-10T03:42:26.565Z,100131.84
2022-10-10T03:43:59.914Z,100136.28
2022-10-10T03:45:33.120Z,100130.22
2022-10-10T03:47:06.455Z,100131.22
2022-10-10T03:48:38.571Z,100128.63
2022-10-10T03:50:13.512Z,100122.59
2022-10-10T03:51:46.799Z,100129.63
2022-10-10T03:53:20.029Z,100129.66
2022-10-10T03:54:53.137Z,100131.47
2022-10-10T03:56:25.406Z,100138.50
2022-10-10T03:57:58.940Z,100140.28
2022-10-10T03:59:32.055Z,100139.44
2022-10-10T04:01:05.736Z,100142.06
2022-10-10T04:02:38.951Z,100143.78
2022-10-10T04:04:12.210Z,100138.50
2022-10-10T04:05:45.719Z,100143.72
2022-10-10T04:07:18.820Z,100138.44
2022-10-10T04:08:52.291Z,100140.22
2022-10-10T04:10:25.672Z,100131.41
2022-10-10T04:11:59.700Z,100137.56
2022-10-10T04:13:32.871Z,100139.28
2022-10-10T04:15:06.058Z,100145.41
2022-10-10T04:16:39.312Z,100146.22
2022-10-10T04:18:12.668Z,100142.72
2022-10-10T04:19:45.783Z,100140.16
2022-10-10T04:21:20.664Z,100150.69
2022-10-10T04:22:54.292Z,100151.47
2022-10-10T04:24:27.690Z,100149.69
2022-10-10T04:26:00.974Z,100155.81
2022-10-10T04:27:34.472Z,100152.28
2022-10-10T04:29:07.835Z,100146.16
2022-10-10T04:30:41.615Z,100145.16
2022-10-10T04:32:13.908Z,100141.63
2022-10-10T04:33:47.227Z,100148.69
2022-10-10T04:35:19.674Z,100141.78
2022-10-10T04:36:54.193Z,100142.72
2022-10-10T04:38:27.535Z,100136.69
2022-10-10T04:40:00.776Z,100142.81
2022-10-10T04:41:34.417Z,100143.78
2022-10-10T04:43:07.561Z,100141.91
2022-10-10T04:44:40.756Z,100142.75
2022-10-10T04:46:13.350Z,100144.41
2022-10-10T04:47:46.693Z,100148.78
2022-10-10T04:49:18.889Z,100150.53
2022-10-10T04:50:55.823Z,100151.44
2022-10-10T04:52:30.678Z,100147.03
2022-10-10T04:54:03.934Z,100149.59
2022-10-10T04:55:37.165Z,100148.59
2022-10-10T04:57:10.401Z,100152.84
2022-10-10T04:58:43.632Z,100146.59
2022-10-10T05:00:17.157Z,100148.34
2022-10-10T05:01:50.278Z,100154.50
2022-10-10T05:03:24.535Z,100149.91
2022-10-10T05:04:56.877Z,100146.19
2022-10-10T05:06:30.224Z,100146.84
2022-10-10T05:08:04.964Z,100158.03
2022-10-10T05:09:37.124Z,100156.06
2022-10-10T05:11:10.548Z,100161.16
2022-10-10T05:12:43.873Z,100165.31
2022-10-10T05:14:17.036Z,100155.44
2022-10-10T05:15:52.786Z,100160.50
2022-10-10T05:17:26.248Z,100167.44
2022-10-10T05:18:59.802Z,100158.63
2022-10-10T05:20:34.051Z,100157.63
2022-10-10T05:22:07.300Z,100161.88
2022-10-10T05:23:42.472Z,100156.59
2022-10-10T05:25:15.844Z,100159.97
2022-10-10T05:26:49.027Z,100165.19
2022-10-10T05:28:22.436Z,100155.22
2022-10-10T05:29:55.958Z,100166.53
2022-10-10T05:31:30.369Z,100157.63
2022-10-10T05:33:03.753Z,100167.19
2022-10-10T05:34:36.940Z,100165.38
2022-10-10T05:36:13.217Z,100157.22
2022-10-10T05:37:46.674Z,100166.69
2022-10-10T05:39:21.311Z,100162.91
2022-10-10T05:40:56.701Z,100166.66
2022-10-10T05:42:30.089Z,100163.91
2022-10-10T05:44:03.317Z,100181.31
2022-10-10T05:45:36.554Z,100169.56
2022-10-10T05:47:09.788Z,100165.47
2022-10-10T05:48:43.455Z,100185.53
2022-10-10T05:50:28.935Z,100173.25
2022-10-10T05:52:02.180Z,100182.13
2022-10-10T05:53:35.323Z,100177.94
2022-10-10T05:55:10.580Z,100177.38
2022-10-10T05:56:44.227Z,100171.69
2022-10-10T05:58:17.599Z,100189.66
2022-10-10T05:59:50.799Z,100179.25
2022-10-10T06:01:24.119Z,100167.16
2022-10-10T06:02:58.680Z,100167.66
2022-10-10T06:04:32.274Z,100168.38
2022-10-10T06:06:07.147Z,100164.88
2022-10-10T06:08:04.303Z,100162.34
2022-10-10T06:09:34.131Z,100155.53
2022-10-10T06:11:09.199Z,100155.34
2022-10-10T06:12:42.538Z,100161.91
2022-10-10T06:14:15.703Z,100162.88
2022-10-10T06:15:52.378Z,100156.44
2022-10-10T06:17:25.528Z,100166.81
2022-10-10T06:18:58.892Z,100168.88
2022-10-10T06:20:32.058Z,100165.53
2022-10-10T06:22:05.596Z,100168.31
2022-10-10T06:23:38.852Z,100168.19
2022-10-10T06:25:29.104Z,100170.84
2022-10-10T06:27:07.148Z,100172.22
2022-10-10T06:28:40.684Z,100177.44
2022-10-10T06:30:14.597Z,100173.00
2022-10-10T06:31:47.822Z,100169.44
2022-10-10T06:33:21.463Z,100180.03
2022-10-10T06:34:54.679Z,100181.75
2022-10-10T06:36:27.926Z,100182.75
2022-10-10T06:38:01.118Z,100173.88
2022-10-10T06:39:34.365Z,100157.03
2022-10-10T06:41:08.315Z,100173.47
2022-10-10T06:42:42.990Z,100166.16
2022-10-10T06:44:17.907Z,100171.47
2022-10-10T06:45:52.079Z,100168.72
2022-10-10T06:47:25.356Z,100171.06
2022-10-10T06:48:58.823Z,100170.41
2022-10-10T06:50:32.169Z,100172.53
2022-10-10T06:52:05.319Z,100172.75
2022-10-10T06:53:38.462Z,100181.00
2022-10-10T06:55:11.851Z,100176.91
2022-10-10T06:56:45.099Z,100169.00
2022-10-10T06:58:19.756Z,100173.41
2022-10-10T06:59:52.892Z,100170.63
2022-10-10T07:01:27.304Z,100176.25
2022-10-10T07:03:00.501Z,100184.94
2022-10-10T07:04:33.675Z,100174.00
2022-10-10T07:06:10.565Z,100176.09
2022-10-10T07:07:44.513Z,100168.97
2022-10-10T07:09:18.902Z,100172.00
2022-10-10T07:10:52.662Z,100159.72
2022-10-10T07:12:29.091Z,100164.66
2022-10-10T07:14:04.908Z,100152.94
2022-10-10T07:15:38.139Z,100158.75
2022-10-10T07:17:11.393Z,100160.66
2022-10-10T07:18:44.535Z,100150.88
2022-10-10T07:20:17.930Z,100152.00
2022-10-10T07:21:51.086Z,100148.75
2022-10-10T07:23:24.571Z,100144.13
2022-10-10T07:24:57.762Z,100145.63
2022-10-10T07:26:37.003Z,100140.97
2022-10-10T07:28:11.195Z,100142.88
2022-10-10T07:29:46.153Z,100138.81
2022-10-10T07:31:19.383Z,100132.03
2022-10-10T07:32:54.394Z,100139.81
2022-10-10T07:34:27.802Z,100129.47
2022-10-10T07:36:01.163Z,100131.59
2022-10-10T07:37:34.450Z,100124.28
2022-10-10T07:39:07.908Z,100125.25
2022-10-10T07:40:41.906Z,100119.34
2022-10-10T07:42:15.276Z,100131.09
2022-10-10T07:43:48.491Z,100127.09
2022-10-10T07:45:23.358Z,100119.16
2022-10-10T07:46:56.500Z,100115.56
2022-10-10T07:48:29.628Z,100113.13
2022-10-10T07:50:02.876Z,100109.69
2022-10-10T07:51:36.628Z,100112.13
2022-10-10T07:53:09.901Z,100110.66
2022-10-10T07:54:43.486Z,100108.66
2022-10-10T07:56:16.732Z,100117.97
2022-10-10T07:57:53.393Z,100119.69
2022-10-10T07:59:27.031Z,100121.72
2022-10-10T08:01:06.042Z,100113.53
2022-10-10T08:02:39.258Z,100112.88
2022-10-10T08:04:12.680Z,100112.88
2022-10-10T08:05:47.066Z,100111.72
2022-10-10T08:07:20.592Z,100127.31
2022-10-10T08:08:53.814Z,100105.53
2022-10-10T08:10:28.727Z,100112.47
2022-10-10T08:12:02.098Z,100114.06
2022-10-10T08:13:36.194Z,100118.06
2022-10-10T08:16:50.328Z,100110.63
2022-10-10T08:18:23.648Z,100107.56
2022-10-10T08:19:57.028Z,100109.28
2022-10-10T08:21:30.253Z,100105.72
2022-10-10T08:23:03.520Z,100104.03
2022-10-10T08:24:36.692Z,100097.69
2022-10-10T08:26:12.202Z,100101.72
2022-10-10T08:27:45.374Z,100103.28
2022-10-10T08:29:18.747Z,100105.19
2022-10-10T08:30:52.175Z,100110.53
2022-10-10T08:32:26.973Z,100103.44
2022-10-10T08:34:00.151Z,100108.28
2022-10-10T08:35:33.683Z,100100.97
2022-10-10T08:37:06.931Z,100104.88
2022-10-10T08:38:40.051Z,100104.56
2022-10-10T08:40:16.324Z,100109.28
2022-10-10T08:41:52.403Z,100096.44
2022-10-10T08:43:34.284Z,100094.78
2022-10-10T08:45:14.185Z,100088.47
2022-10-10T08:46:51.478Z,100088.16
2022-10-10T08:48:30.261Z,100091.09
2022-10-10T08:50:07.044Z,100090.22
2022-10-10T08:51:43.856Z,100092.72
2022-10-10T08:53:25.071Z,100099.41
2022-10-10T08:55:01.660Z,100092.69
2022-10-10T08:56:36.190Z,100088.63
2022-10-10T08:58:18.008Z,100088.03
2022-10-10T09:01:32.691Z,100091.16
2022-10-10T09:03:14.221Z,100089.78
2022-10-10T09:04:48.922Z,100096.38
2022-10-10T09:06:34.123Z,100087.56
2022-10-10T09:08:23.267Z,100083.25
2022-10-10T09:10:07.719Z,100088.94
2022-10-10T09:11:52.936Z,100087.41
2022-10-10T09:13:34.495Z,100089.47
2022-10-10T09:15:16.091Z,100085.72
2022-10-10T09:16:56.320Z,100096.25
2022-10-10T09:18:46.913Z,100093.47
2022-10-10T09:20:38.089Z,100090.03
2022-10-10T09:22:15.911Z,100090.66
2022-10-10T09:25:31.013Z,100066.09
2022-10-10T09:27:06.620Z,100083.66
2022-10-10T09:28:44.524Z,100084.19
2022-10-10T09:30:21.067Z,100086.34
2022-10-10T09:31:59.796Z,100078.47
2022-10-10T09:33:37.573Z,100080.75
2022-10-10T09:35:17.776Z,100083.56
2022-10-10T09:36:56.075Z,100061.34
2022-10-10T09:38:38.137Z,100080.75
2022-10-10T09:40:18.821Z,100074.47
2022-10-10T09:41:58.854Z,100075.66
2022-10-10T09:43:34.962Z,100063.50
2022-10-10T09:45:17.566Z,100061.56
2022-10-10T09:46:50.993Z,100059.59
2022-10-10T09:48:30.341Z,100056.25
2022-10-10T09:51:42.689Z,100054.13
2022-10-10T09:53:17.924Z,100054.69
2022-10-10T09:54:52.475Z,100047.38
2022-10-10T09:56:28.208Z,100048.84
2022-10-10T09:58:05.835Z,100052.44
2022-10-10T09:59:42.150Z,100049.06
2022-10-10T10:01:18.889Z,100041.31
2022-10-10T10:03:04.856Z,100035.47
2022-10-10T10:04:38.433Z,100040.53
2022-10-10T10:06:15.143Z,100032.72
2022-10-10T10:07:48.933Z,100018.34
2022-10-10T10:09:24.444Z,100041.75
2022-10-10T10:11:01.731Z,100024.69
2022-10-10T10:12:41.373Z,100016.75
2022-10-10T10:14:29.272Z,100024.03
2022-10-10T10:16:05.714Z,100015.81
2022-10-10T10:17:38.897Z,100016.91
2022-10-10T10:19:32.144Z,100012.78
2022-10-10T10:21:20.505Z,100011.06
2022-10-10T10:22:53.736Z,100007.38
2022-10-10T10:24:36.392Z,100015.97
2022-10-10T10:26:17.660Z,100016.41
2022-10-10T10:27:50.928Z,100020.88
2022-10-10T10:29:32.511Z,100019.31
2022-10-10T10:31:06.303Z,100013.44
2022-10-10T10:32:48.330Z,100007.19
2022-10-10T10:34:40.843Z,100003.13
2022-10-10T10:36:28.236Z,100005.94
2022-10-10T10:38:20.137Z,100014.16
2022-10-10T10:40:18.764Z,99997.34
2022-10-10T10:41:57.819Z,99994.41
2022-10-10T10:43:49.500Z,100004.25
2022-10-10T10:45:33.486Z,99996.28
2022-10-10T10:47:20.195Z,99994.19
2022-10-10T10:49:02.205Z,99999.47
2022-10-10T10:50:46.249Z,99996.78
2022-10-10T10:52:40.348Z,99999.75
2022-10-10T10:54:31.538Z,99990.53
2022-10-10T10:56:18.179Z,99988.94
2022-10-10T10:58:54.997Z,99984.34
2022-10-10T11:00:22.181Z,99986.75
2022-10-10T11:02:43.698Z,99978.41
2022-10-10T11:05:19.017Z,99977.69
2022-10-10T11:07:17.869Z,99969.22
2022-10-10T11:09:03.092Z,99976.72
2022-10-10T11:10:42.437Z,99976.72
2022-10-10T11:12:38.736Z,99982.13
2022-10-10T11:14:26.719Z,99979.16
2022-10-10T11:16:10.040Z,99977.94
2022-10-10T11:17:58.143Z,99968.34
2022-10-10T11:19:35.777Z,99968.94
2022-10-10T11:21:15.845Z,99969.81
2022-10-10T11:22:53.609Z,99960.72
2022-10-10T11:24:38.600Z,99964.91
2022-10-10T11:26:19.824Z,99969.34
2022-10-10T11:28:00.308Z,99968.31
2022-10-10T11:29:40.156Z,99963.78
2022-10-10T11:31:22.295Z,99962.91
2022-10-10T11:33:00.308Z,99962.72
2022-10-10T11:34:39.766Z,99959.03
2022-10-10T11:36:17.329Z,99955.97
2022-10-10T11:37:58.866Z,99957.06
2022-10-10T11:39:40.160Z,99952.13
2022-10-10T11:41:17.350Z,99947.72
2022-10-10T11:42:57.955Z,99948.06
2022-10-10T11:44:37.844Z,99940.56
2022-10-10T11:46:22.818Z,99946.47
2022-10-10T11:48:01.881Z,99940.09
2022-10-10T11:49:45.110Z,99947.97
2022-10-10T11:51:37.376Z,99934.44
2022-10-10T11:53:20.359Z,99937.16
2022-10-10T11:55:00.579Z,99938.16
2022-10-10T11:56:39.217Z,99941.81
2022-10-10T11:58:29.140Z,99935.91
2022-10-10T12:00:07.696Z,99932.19
2022-10-10T12:01:47.819Z,99932.44
2022-10-10T12:03:21.600Z,99941.31
2022-10-10T12:04:55.057Z,99937.16
2022-10-10T12:06:34.796Z,99938.38
2022-10-10T12:08:18.064Z,99932.75
2022-10-10T12:09:55.624Z,99931.00
2022-10-10T12:11:33.818Z,99928.91
2022-10-10T12:13:23.843Z,99930.63
2022-10-10T12:15:03.221Z,99934.44
2022-10-10T12:16:38.900Z,99930.75
2022-10-10T12:18:25.656Z,99929.03
2022-10-10T12:20:11.439Z,99932.75
2022-10-10T12:22:05.075Z,99934.44
2022-10-10T12:23:41.278Z,99927.91
2022-10-10T12:25:26.012Z,99926.94
2022-10-10T12:27:28.186Z,99927.69
2022-10-10T12:29:05.553Z,99929.25
2022-10-10T12:31:18.943Z,99938.84
2022-10-10T12:32:54.344Z,99927.06
2022-10-10T12:34:45.091Z,99935.28
2022-10-10T12:36:55.900Z,99924.34
2022-10-10T12:38:29.502Z,99917.09
2022-10-10T12:40:29.938Z,99925.47
2022-10-10T12:42:03.748Z,99927.03
2022-10-10T12:43:51.046Z,99926.31
2022-10-10T12:46:09.907Z,99929.25
2022-10-10T12:48:04.474Z,99926.09
2022-10-10T12:49:39.830Z,99928.28
2022-10-10T12:51:21.895Z,99935.66
2022-10-10T12:52:59.030Z,99934.19
2022-10-10T12:54:38.898Z,99923.63
2022-10-10T12:56:14.027Z,99927.41
2022-10-10T12:57:49.771Z,99932.81
2022-10-10T12:59:25.592Z,99929.84
2022-10-10T13:01:03.510Z,99931.97
2022-10-10T13:02:37.199Z,99928.28
2022-10-10T13:04:10.642Z,99925.44
2022-10-10T13:05:45.016Z,99923.38
2022-10-10T13:07:22.130Z,99921.28
2022-10-10T13:08:57.059Z,99913.53
2022-10-10T13:10:31.810Z,99906.28
2022-10-10T13:12:07.424Z,99908.88
2022-10-10T13:13:41.531Z,99907.88
2022-10-10T13:15:24.173Z,99908.50
2022-10-10T13:16:59.024Z,99908.13
2022-10-10T13:18:36.891Z,99907.66
2022-10-10T13:20:29.142Z,99911.81
2022-10-10T13:22:02.576Z,99915.75
2022-10-10T13:23:37.453Z,99901.75
2022-10-10T13:25:12.399Z,99913.41
2022-10-10T13:26:48.312Z,99916.22
2022-10-10T13:28:23.326Z,99911.06
2022-10-10T13:29:57.191Z,99909.22
2022-10-10T13:31:32.175Z,99913.66
2022-10-10T13:33:15.860Z,99911.56
2022-10-10T13:34:57.107Z,99902.00
2022-10-10T13:36:32.273Z,99899.28
2022-10-10T13:38:06.963Z,99902.97
2022-10-10T13:39:40.764Z,99898.03
2022-10-10T13:41:15.254Z,99903.66
2022-10-10T13:42:49.552Z,99891.59
2022-10-10T13:44:24.704Z,99889.88
2022-10-10T13:46:00.491Z,99893.03
2022-10-10T13:47:53.186Z,99897.22
2022-10-10T13:49:29.506Z,99902.38
2022-10-10T13:51:06.404Z,99892.34
2022-10-10T13:52:39.943Z,99898.47
2022-10-10T13:54:43.081Z,99892.88
2022-10-10T13:56:19.241Z,99895.03
2022-10-10T13:57:57.111Z,99890.38
2022-10-10T13:59:34.133Z,99894.81
2022-10-10T14:01:07.835Z,99890.47
2022-10-10T14:02:44.570Z,99889.88
2022-10-10T14:04:25.294Z,99898.97
2022-10-10T14:06:00.493Z,99896.38
2022-10-10T14:07:33.925Z,99888.63
2022-10-10T14:09:16.997Z,99899.19
2022-10-10T14:10:58.498Z,99899.31
2022-10-10T14:12:34.894Z,99895.03
2022-10-10T14:14:15.913Z,99899.66
2022-10-10T14:15:49.843Z,99892.56
2022-10-10T14:17:23.091Z,99876.44
2022-10-10T14:18:56.673Z,99893.53
2022-10-10T14:20:30.019Z,99891.56
2022-10-10T14:22:04.645Z,99896.84
2022-10-10T14:23:40.799Z,99887.16
2022-10-10T14:25:14.028Z,99890.34
2022-10-10T14:26:47.487Z,99888.41
2022-10-10T14:28:22.870Z,99888.16
2022-10-10T14:29:58.518Z,99882.00
2022-10-10T14:31:31.833Z,99882.53
2022-10-10T14:33:12.142Z,99870.13
2022-10-10T14:34:45.652Z,99883.50
2022-10-10T14:36:18.978Z,99877.13
2022-10-10T14:37:53.709Z,99882.53
2022-10-10T14:39:26.922Z,99872.22
2022-10-10T14:41:01.894Z,99873.44
2022-10-10T14:42:35.337Z,99882.06
2022-10-10T14:44:08.862Z,99880.72
2022-10-10T14:45:41.995Z,99885.28
2022-10-10T14:47:17.524Z,99878.38
2022-10-10T14:48:50.811Z,99878.66
2022-10-10T14:50:27.137Z,99876.56
2022-10-10T14:52:01.502Z,99868.34
2022-10-10T14:53:36.573Z,99870.81
2022-10-10T14:55:11.326Z,99879.16
2022-10-10T14:57:09.459Z,99874.84
2022-10-10T14:58:39.593Z,99869.81
2022-10-10T15:00:16.219Z,99874.94
2022-10-10T15:01:50.032Z,99873.44
2022-10-10T15:03:23.352Z,99869.28
2022-10-10T15:04:56.599Z,99869.63
2022-10-10T15:06:29.708Z,99861.88
2022-10-10T15:08:03.054Z,99866.28
2022-10-10T15:09:47.473Z,99867.84
2022-10-10T15:11:30.219Z,99865.84
2022-10-10T15:13:04.658Z,99868.41
2022-10-10T15:14:37.897Z,99872.31
2022-10-10T15:16:11.097Z,99856.84
2022-10-10T15:17:44.287Z,99873.84
2022-10-10T15:19:16.786Z,99874.41
2022-10-10T15:20:49.941Z,99874.75
2022-10-10T15:22:23.116Z,99874.97
2022-10-10T15:23:56.787Z,99866.50
2022-10-10T15:25:33.922Z,99867.94
2022-10-10T15:27:07.413Z,99877.22
2022-10-10T15:28:40.648Z,99873.78
2022-10-10T15:30:14.553Z,99875.97
2022-10-10T15:31:47.981Z,99877.50
2022-10-10T15:33:21.310Z,99887.13
2022-10-10T15:34:54.577Z,99890.25
2022-10-10T15:36:28.201Z,99890.47
2022-10-10T15:38:02.527Z,99881.88
2022-10-10T15:39:38.445Z,99870.94
2022-10-10T15:41:13.102Z,99876.41
2022-10-10T15:42:46.762Z,99876.72
2022-10-10T15:44:20.159Z,99872.63
2022-10-10T15:45:56.171Z,99869.41
2022-10-10T15:47:29.584Z,99876.94
2022-10-10T15:49:03.496Z,99877.16
2022-10-10T15:50:39.504Z,99879.31
2022-10-10T15:52:12.645Z,99872.22
2022-10-10T15:53:46.118Z,99886.22
2022-10-10T15:55:19.573Z,99880.63
2022-10-10T15:56:54.385Z,99883.66
2022-10-10T15:58:27.598Z,99890.31
2022-10-10T16:00:00.804Z,99890.53
2022-10-10T16:01:34.173Z,99891.72
2022-10-10T16:03:07.839Z,99887.53
2022-10-10T16:04:41.079Z,99895.81
2022-10-10T16:06:15.422Z,99897.72
2022-10-10T16:07:49.042Z,99885.56
2022-10-10T16:09:28.508Z,99903.53
2022-10-10T16:11:06.685Z,99893.78
2022-10-10T16:12:41.427Z,99901.03
2022-10-10T16:14:14.916Z,99897.75
2022-10-10T16:15:57.989Z,99894.53
2022-10-10T16:17:31.217Z,99891.31
2022-10-10T16:19:04.957Z,99894.94
2022-10-10T16:20:39.719Z,99898.59
2022-10-10T16:22:13.032Z,99905.94
2022-10-10T16:23:46.561Z,99905.06
2022-10-10T16:25:22.671Z,99899.00
2022-10-10T16:26:56.374Z,99895.59
2022-10-10T16:28:31.132Z,99901.94
2022-10-10T16:30:04.748Z,99897.31
2022-10-10T16:31:39.290Z,99903.75
2022-10-10T16:33:13.068Z,99899.44
2022-10-10T16:34:46.361Z,99902.88
2022-10-10T16:36:21.943Z,99895.16
2022-10-10T16:37:55.953Z,99898.56
2022-10-10T16:39:29.459Z,99896.97
2022-10-10T16:41:04.216Z,99893.41
2022-10-10T16:42:38.353Z,99895.44
2022-10-10T16:44:12.906Z,99898.34
2022-10-10T16:45:47.020Z,99895.09
2022-10-10T16:47:20.481Z,99907.75
2022-10-10T16:48:54.314Z,99903.00
2022-10-10T16:50:27.710Z,99900.44
2022-10-10T16:52:01.083Z,99905.13
2022-10-10T16:53:34.670Z,99909.84
2022-10-10T16:55:09.103Z,99906.72
2022-10-10T16:56:42.992Z,99910.47
2022-10-10T16:58:16.423Z,99915.94
2022-10-10T16:59:50.976Z,99907.41
2022-10-10T17:01:23.584Z,99912.28
2022-10-10T17:02:56.818Z,99910.56
2022-10-10T17:04:30.334Z,99912.47
2022-10-10T17:06:04.972Z,99909.22
2022-10-10T17:07:38.185Z,99909.44
2022-10-10T17:09:11.651Z,99916.72
2022-10-10T17:10:45.486Z,99923.34
2022-10-10T17:12:19.582Z,99912.81
2022-10-10T17:13:52.966Z,99913.88
2022-10-10T17:15:27.809Z,99914.91
2022-10-10T17:17:16.692Z,99911.47
2022-10-10T17:18:50.103Z,99914.44
2022-10-10T17:20:23.363Z,99912.91
2022-10-10T17:21:56.545Z,99920.59
2022-10-10T17:23:29.796Z,99919.81
2022-10-10T17:25:03.454Z,99919.25
2022-10-10T17:26:36.659Z,99917.72
2022-10-10T17:28:10.022Z,99916.19
2022-10-10T17:29:43.578Z,99920.03
2022-10-10T17:31:18.943Z,99910.72
2022-10-10T17:32:52.159Z,99918.66
2022-10-10T17:34:25.344Z,99920.75
2022-10-10T17:35:58.939Z,99918.44
2022-10-10T17:37:32.551Z,99918.63
2022-10-10T17:39:07.613Z,99929.53
2022-10-10T17:40:40.332Z,99927.22
2022-10-10T17:42:13.796Z,99920.31
2022-10-10T17:43:47.617Z,99922.41
2022-10-10T17:45:20.934Z,99923.47
2022-10-10T17:46:55.521Z,99924.69
2022-10-10T17:48:29.119Z,99926.81
2022-10-10T17:50:02.805Z,99922.84
2022-10-10T17:51:37.358Z,99923.91
2022-10-10T17:53:10.560Z,99908.53
2022-10-10T17:54:44.073Z,99921.75
2022-10-10T17:56:19.509Z,99921.16
2022-10-10T17:57:52.716Z,99925.06
2022-10-10T17:59:25.909Z,99920.06
2022-10-10T18:01:03.112Z,99910.47
2022-10-10T18:02:38.138Z,99922.91
2022-10-10T18:04:15.265Z,99916.97
2022-10-10T18:05:48.439Z,99915.16
2022-10-10T18:07:21.830Z,99917.06
2022-10-10T18:08:56.141Z,99915.16
2022-10-10T18:10:30.336Z,99919.56
2022-10-10T18:12:03.638Z,99912.28
2022-10-10T18:13:37.847Z,99916.53
2022-10-10T18:15:11.630Z,99917.28
2022-10-10T18:16:45.183Z,99921.50
2022-10-10T18:18:20.019Z,99922.31
2022-10-10T18:19:53.238Z,99918.91
2022-10-10T18:21:27.060Z,99921.78
2022-10-10T18:23:00.618Z,99922.06
2022-10-10T18:24:33.831Z,99911.94
2022-10-10T18:26:09.399Z,99915.63
2022-10-10T18:27:42.848Z,99917.72
2022-10-10T18:29:16.046Z,99925.94
2022-10-10T18:30:49.288Z,99923.44
2022-10-10T18:32:22.520Z,99925.50
2022-10-10T18:33:57.530Z,99917.91
2022-10-10T18:35:30.641Z,99919.91
2022-10-10T18:37:04.823Z,99931.75
2022-10-10T18:38:38.438Z,99925.69
2022-10-10T18:40:12.573Z,99923.28
2022-10-10T18:41:46.538Z,99919.97
2022-10-10T18:43:19.855Z,99935.19
2022-10-10T18:44:53.286Z,99925.50